sensor_id;sensor_type;location;lat;lon;timestamp;P1;durP1;ratioP1;P2;durP2;ratioP2
35028;SDS011;35394;54.282;10.070;2024-01-10T00:00:18;38.47;;;23.48;;
35028;SDS011;35394;54.282;10.070;2024-01-10T00:00:49;41.10;;;24.60;;
35028;SDS011;35394;54.282;10.070;2024-01-10T00:01:19;39.53;;;23.47;;
35028;SDS011;35394;54.282;10.070;2024-01-10T00:01:50;38.05;;;22.95;;
35028;SDS011;35394;54.282;10.070;2024-01-10T00:02:21;37.33;;;21.97;;
35028;SDS011;35394;54.282;10.070;2024-01-10T00:02:52;35.03;;;20.85;;
35028;SDS011;35394;54.282;10.070;2024-01-10T00:03:22;36.50;;;21.53;;
35028;SDS011;35394;54.282;10.070;2024-01-10T00:03:53;33.77;;;21.27;;
35028;SDS011;35394;54.282;10.070;2024-01-10T00:04:24;32.85;;;20.35;;
35028;SDS011;35394;54.282;10.070;2024-01-10T00:04:55;34.00;;;20.47;;
35028;SDS011;35394;54.282;10.070;2024-01-10T00:05:25;31.73;;;19.83;;
35028;SDS011;35394;54.282;10.070;2024-01-10T00:05:56;33.42;;;19.95;;
35028;SDS011;35394;54.282;10.070;2024-01-10T00:06:26;34.70;;;20.73;;
35028;SDS011;35394;54.282;10.070;2024-01-10T00:06:57;32.20;;;19.95;;
35028;SDS011;35394;54.282;10.070;2024-01-10T00:07:27;33.70;;;20.97;;
35028;SDS011;35394;54.282;10.070;2024-01-10T00:07:58;35.28;;;20.95;;
35028;SDS011;35394;54.282;10.070;2024-01-10T00:08:28;41.30;;;24.13;;
35028;SDS011;35394;54.282;10.070;2024-01-10T00:08:59;35.37;;;21.40;;
35028;SDS011;35394;54.282;10.070;2024-01-10T00:09:30;35.95;;;21.33;;
35028;SDS011;35394;54.282;10.070;2024-01-10T00:10:00;34.92;;;21.40;;
35028;SDS011;35394;54.282;10.070;2024-01-10T00:10:32;35.85;;;21.08;;
35028;SDS011;35394;54.282;10.070;2024-01-10T00:11:02;33.75;;;20.65;;
35028;SDS011;35394;54.282;10.070;2024-01-10T00:11:33;34.57;;;21.10;;
35028;SDS011;35394;54.282;10.070;2024-01-10T00:12:03;32.75;;;20.20;;
35028;SDS011;35394;54.282;10.070;2024-01-10T00:12:34;33.97;;;20.35;;
35028;SDS011;35394;54.282;10.070;2024-01-10T00:13:06;35.95;;;21.13;;
35028;SDS011;35394;54.282;10.070;2024-01-10T00:13:37;34.00;;;19.92;;
35028;SDS011;35394;54.282;10.070;2024-01-10T00:14:07;32.30;;;19.70;;
35028;SDS011;35394;54.282;10.070;2024-01-10T00:14:39;34.10;;;20.05;;
35028;SDS011;35394;54.282;10.070;2024-01-10T00:15:10;36.30;;;21.77;;
35028;SDS011;35394;54.282;10.070;2024-01-10T00:15:40;35.60;;;20.77;;
35028;SDS011;35394;54.282;10.070;2024-01-10T00:16:14;34.45;;;20.45;;
35028;SDS011;35394;54.282;10.070;2024-01-10T00:16:45;34.38;;;20.42;;
35028;SDS011;35394;54.282;10.070;2024-01-10T00:17:15;38.63;;;21.95;;
35028;SDS011;35394;54.282;10.070;2024-01-10T00:17:46;35.53;;;21.73;;
35028;SDS011;35394;54.282;10.070;2024-01-10T00:18:16;37.00;;;21.58;;
35028;SDS011;35394;54.282;10.070;2024-01-10T00:18:47;37.40;;;21.87;;
35028;SDS011;35394;54.282;10.070;2024-01-10T00:19:17;37.03;;;21.75;;
35028;SDS011;35394;54.282;10.070;2024-01-10T00:19:48;41.42;;;23.88;;
35028;SDS011;35394;54.282;10.070;2024-01-10T00:20:18;39.60;;;23.23;;
35028;SDS011;35394;54.282;10.070;2024-01-10T00:20:49;38.95;;;23.35;;
35028;SDS011;35394;54.282;10.070;2024-01-10T00:21:20;41.10;;;23.23;;
35028;SDS011;35394;54.282;10.070;2024-01-10T00:21:50;36.53;;;22.00;;
35028;SDS011;35394;54.282;10.070;2024-01-10T00:22:21;36.35;;;21.52;;
35028;SDS011;35394;54.282;10.070;2024-01-10T00:22:51;36.83;;;21.90;;
35028;SDS011;35394;54.282;10.070;2024-01-10T00:23:22;35.88;;;22.40;;
35028;SDS011;35394;54.282;10.070;2024-01-10T00:23:52;42.47;;;24.70;;
35028;SDS011;35394;54.282;10.070;2024-01-10T00:24:23;37.37;;;22.30;;
35028;SDS011;35394;54.282;10.070;2024-01-10T00:24:53;40.95;;;23.30;;
35028;SDS011;35394;54.282;10.070;2024-01-10T00:25:24;39.92;;;22.67;;
35028;SDS011;35394;54.282;10.070;2024-01-10T00:25:55;45.70;;;25.37;;
35028;SDS011;35394;54.282;10.070;2024-01-10T00:26:25;37.97;;;23.35;;
35028;SDS011;35394;54.282;10.070;2024-01-10T00:26:56;41.50;;;23.87;;
35028;SDS011;35394;54.282;10.070;2024-01-10T00:27:26;38.33;;;22.65;;
35028;SDS011;35394;54.282;10.070;2024-01-10T00:27:57;38.50;;;22.60;;
35028;SDS011;35394;54.282;10.070;2024-01-10T00:28:27;35.97;;;21.63;;
35028;SDS011;35394;54.282;10.070;2024-01-10T00:28:58;36.10;;;21.52;;
35028;SDS011;35394;54.282;10.070;2024-01-10T00:29:28;37.27;;;21.53;;
35028;SDS011;35394;54.282;10.070;2024-01-10T00:29:59;33.38;;;20.55;;
35028;SDS011;35394;54.282;10.070;2024-01-10T00:30:29;36.40;;;20.90;;
35028;SDS011;35394;54.282;10.070;2024-01-10T00:31:00;33.13;;;19.92;;
35028;SDS011;35394;54.282;10.070;2024-01-10T00:31:30;35.80;;;20.98;;
35028;SDS011;35394;54.282;10.070;2024-01-10T00:32:01;32.90;;;19.57;;
35028;SDS011;35394;54.282;10.070;2024-01-10T00:32:32;33.17;;;19.85;;
35028;SDS011;35394;54.282;10.070;2024-01-10T00:33:02;32.88;;;19.65;;
35028;SDS011;35394;54.282;10.070;2024-01-10T00:33:33;30.90;;;18.27;;
35028;SDS011;35394;54.282;10.070;2024-01-10T00:34:04;30.60;;;18.65;;
35028;SDS011;35394;54.282;10.070;2024-01-10T00:34:34;32.88;;;19.45;;
35028;SDS011;35394;54.282;10.070;2024-01-10T00:35:05;31.08;;;18.13;;
35028;SDS011;35394;54.282;10.070;2024-01-10T00:35:35;30.00;;;17.93;;
35028;SDS011;35394;54.282;10.070;2024-01-10T00:36:06;30.33;;;17.90;;
35028;SDS011;35394;54.282;10.070;2024-01-10T00:36:37;29.55;;;17.40;;
35028;SDS011;35394;54.282;10.070;2024-01-10T00:37:08;28.88;;;17.48;;
35028;SDS011;35394;54.282;10.070;2024-01-10T00:37:38;27.70;;;17.17;;
35028;SDS011;35394;54.282;10.070;2024-01-10T00:38:09;27.37;;;16.63;;
35028;SDS011;35394;54.282;10.070;2024-01-10T00:38:40;30.17;;;18.55;;
35028;SDS011;35394;54.282;10.070;2024-01-10T00:39:10;27.92;;;17.23;;
35028;SDS011;35394;54.282;10.070;2024-01-10T00:39:41;26.80;;;15.93;;
35028;SDS011;35394;54.282;10.070;2024-01-10T00:40:11;27.55;;;16.33;;
35028;SDS011;35394;54.282;10.070;2024-01-10T00:40:42;25.73;;;15.68;;
35028;SDS011;35394;54.282;10.070;2024-01-10T00:41:12;26.77;;;15.60;;
35028;SDS011;35394;54.282;10.070;2024-01-10T00:41:43;25.92;;;15.98;;
35028;SDS011;35394;54.282;10.070;2024-01-10T00:42:13;25.57;;;15.67;;
35028;SDS011;35394;54.282;10.070;2024-01-10T00:42:44;25.10;;;15.20;;
35028;SDS011;35394;54.282;10.070;2024-01-10T00:43:15;25.02;;;15.15;;
35028;SDS011;35394;54.282;10.070;2024-01-10T00:43:45;26.57;;;15.67;;
35028;SDS011;35394;54.282;10.070;2024-01-10T00:44:16;27.42;;;16.33;;
35028;SDS011;35394;54.282;10.070;2024-01-10T00:44:46;30.47;;;16.90;;
35028;SDS011;35394;54.282;10.070;2024-01-10T00:45:17;26.53;;;16.10;;
35028;SDS011;35394;54.282;10.070;2024-01-10T00:45:47;26.05;;;16.05;;
35028;SDS011;35394;54.282;10.070;2024-01-10T00:46:18;23.53;;;14.70;;
35028;SDS011;35394;54.282;10.070;2024-01-10T00:46:48;24.07;;;14.83;;
35028;SDS011;35394;54.282;10.070;2024-01-10T00:47:19;24.33;;;14.90;;
35028;SDS011;35394;54.282;10.070;2024-01-10T00:47:50;22.33;;;14.30;;
35028;SDS011;35394;54.282;10.070;2024-01-10T00:48:20;23.58;;;15.18;;
35028;SDS011;35394;54.282;10.070;2024-01-10T00:48:51;22.33;;;14.10;;
35028;SDS011;35394;54.282;10.070;2024-01-10T00:49:21;22.33;;;14.47;;
35028;SDS011;35394;54.282;10.070;2024-01-10T00:49:52;23.80;;;14.45;;
35028;SDS011;35394;54.282;10.070;2024-01-10T00:50:22;23.02;;;14.55;;
35028;SDS011;35394;54.282;10.070;2024-01-10T00:50:53;25.13;;;15.10;;
35028;SDS011;35394;54.282;10.070;2024-01-10T00:51:24;22.55;;;14.57;;
35028;SDS011;35394;54.282;10.070;2024-01-10T00:51:54;21.98;;;13.93;;
35028;SDS011;35394;54.282;10.070;2024-01-10T00:52:25;21.80;;;14.43;;
35028;SDS011;35394;54.282;10.070;2024-01-10T00:52:55;22.15;;;14.43;;
35028;SDS011;35394;54.282;10.070;2024-01-10T00:53:26;21.47;;;14.07;;
35028;SDS011;35394;54.282;10.070;2024-01-10T00:53:56;19.90;;;13.23;;
35028;SDS011;35394;54.282;10.070;2024-01-10T00:54:27;20.92;;;13.18;;
35028;SDS011;35394;54.282;10.070;2024-01-10T00:54:57;21.07;;;13.37;;
35028;SDS011;35394;54.282;10.070;2024-01-10T00:55:28;19.75;;;13.18;;
35028;SDS011;35394;54.282;10.070;2024-01-10T00:55:58;20.33;;;13.17;;
35028;SDS011;35394;54.282;10.070;2024-01-10T00:56:29;18.50;;;12.57;;
35028;SDS011;35394;54.282;10.070;2024-01-10T00:56:59;19.60;;;12.80;;
35028;SDS011;35394;54.282;10.070;2024-01-10T00:57:30;18.97;;;12.20;;
35028;SDS011;35394;54.282;10.070;2024-01-10T00:58:00;17.98;;;11.88;;
35028;SDS011;35394;54.282;10.070;2024-01-10T00:58:31;17.90;;;11.97;;
35028;SDS011;35394;54.282;10.070;2024-01-10T00:59:02;20.20;;;12.60;;
35028;SDS011;35394;54.282;10.070;2024-01-10T00:59:32;19.55;;;12.82;;
35028;SDS011;35394;54.282;10.070;2024-01-10T01:00:03;15.20;;;10.90;;
35028;SDS011;35394;54.282;10.070;2024-01-10T01:00:37;19.50;;;12.15;;
35028;SDS011;35394;54.282;10.070;2024-01-10T01:01:08;17.03;;;11.30;;
35028;SDS011;35394;54.282;10.070;2024-01-10T01:01:38;19.23;;;12.20;;
35028;SDS011;35394;54.282;10.070;2024-01-10T01:02:09;20.03;;;11.83;;
35028;SDS011;35394;54.282;10.070;2024-01-10T01:02:39;22.02;;;12.32;;
35028;SDS011;35394;54.282;10.070;2024-01-10T01:03:10;18.48;;;12.00;;
35028;SDS011;35394;54.282;10.070;2024-01-10T01:03:40;17.57;;;11.60;;
35028;SDS011;35394;54.282;10.070;2024-01-10T01:04:11;15.15;;;10.25;;
35028;SDS011;35394;54.282;10.070;2024-01-10T01:04:41;16.03;;;10.37;;
35028;SDS011;35394;54.282;10.070;2024-01-10T01:05:12;15.15;;;10.43;;
35028;SDS011;35394;54.282;10.070;2024-01-10T01:05:43;18.10;;;11.63;;
35028;SDS011;35394;54.282;10.070;2024-01-10T01:06:13;17.55;;;11.38;;
35028;SDS011;35394;54.282;10.070;2024-01-10T01:06:44;16.93;;;10.73;;
35028;SDS011;35394;54.282;10.070;2024-01-10T01:07:14;18.45;;;11.18;;
35028;SDS011;35394;54.282;10.070;2024-01-10T01:07:45;18.38;;;11.02;;
35028;SDS011;35394;54.282;10.070;2024-01-10T01:08:16;15.37;;;10.43;;
35028;SDS011;35394;54.282;10.070;2024-01-10T01:08:46;14.73;;;9.90;;
35028;SDS011;35394;54.282;10.070;2024-01-10T01:09:17;15.20;;;9.77;;
35028;SDS011;35394;54.282;10.070;2024-01-10T01:09:49;15.90;;;10.70;;
35028;SDS011;35394;54.282;10.070;2024-01-10T01:10:19;15.30;;;10.13;;
35028;SDS011;35394;54.282;10.070;2024-01-10T01:10:50;14.85;;;9.93;;
35028;SDS011;35394;54.282;10.070;2024-01-10T01:11:20;14.40;;;9.67;;
35028;SDS011;35394;54.282;10.070;2024-01-10T01:11:51;16.47;;;10.47;;
35028;SDS011;35394;54.282;10.070;2024-01-10T01:12:22;15.02;;;9.48;;
35028;SDS011;35394;54.282;10.070;2024-01-10T01:12:52;16.90;;;10.90;;
35028;SDS011;35394;54.282;10.070;2024-01-10T01:13:23;15.90;;;10.23;;
35028;SDS011;35394;54.282;10.070;2024-01-10T01:13:53;14.70;;;9.45;;
35028;SDS011;35394;54.282;10.070;2024-01-10T01:14:24;13.97;;;9.13;;
35028;SDS011;35394;54.282;10.070;2024-01-10T01:14:54;14.32;;;9.40;;
35028;SDS011;35394;54.282;10.070;2024-01-10T01:15:25;14.65;;;9.77;;
35028;SDS011;35394;54.282;10.070;2024-01-10T01:15:56;14.43;;;9.87;;
35028;SDS011;35394;54.282;10.070;2024-01-10T01:16:26;14.57;;;9.73;;
35028;SDS011;35394;54.282;10.070;2024-01-10T01:16:57;13.90;;;9.00;;
35028;SDS011;35394;54.282;10.070;2024-01-10T01:17:27;15.67;;;9.60;;
35028;SDS011;35394;54.282;10.070;2024-01-10T01:17:58;17.65;;;10.68;;
35028;SDS011;35394;54.282;10.070;2024-01-10T01:18:28;13.80;;;9.23;;
35028;SDS011;35394;54.282;10.070;2024-01-10T01:18:59;13.95;;;9.32;;
35028;SDS011;35394;54.282;10.070;2024-01-10T01:19:29;13.98;;;9.68;;
35028;SDS011;35394;54.282;10.070;2024-01-10T01:20:00;13.67;;;9.10;;
35028;SDS011;35394;54.282;10.070;2024-01-10T01:20:31;13.20;;;9.27;;
35028;SDS011;35394;54.282;10.070;2024-01-10T01:21:02;13.35;;;9.10;;
35028;SDS011;35394;54.282;10.070;2024-01-10T01:21:33;16.95;;;10.38;;
35028;SDS011;35394;54.282;10.070;2024-01-10T01:22:04;17.67;;;10.90;;
35028;SDS011;35394;54.282;10.070;2024-01-10T01:22:34;14.10;;;9.20;;
35028;SDS011;35394;54.282;10.070;2024-01-10T01:23:05;13.70;;;8.90;;
35028;SDS011;35394;54.282;10.070;2024-01-10T01:23:36;13.80;;;9.20;;
35028;SDS011;35394;54.282;10.070;2024-01-10T01:24:06;13.20;;;8.80;;
35028;SDS011;35394;54.282;10.070;2024-01-10T01:24:37;12.23;;;8.60;;
35028;SDS011;35394;54.282;10.070;2024-01-10T01:25:07;14.33;;;9.17;;
35028;SDS011;35394;54.282;10.070;2024-01-10T01:25:38;13.38;;;8.75;;
35028;SDS011;35394;54.282;10.070;2024-01-10T01:26:09;13.32;;;8.68;;
35028;SDS011;35394;54.282;10.070;2024-01-10T01:26:40;14.50;;;9.53;;
35028;SDS011;35394;54.282;10.070;2024-01-10T01:27:11;15.70;;;9.73;;
35028;SDS011;35394;54.282;10.070;2024-01-10T01:27:41;15.00;;;9.20;;
35028;SDS011;35394;54.282;10.070;2024-01-10T01:28:12;13.43;;;8.90;;
35028;SDS011;35394;54.282;10.070;2024-01-10T01:28:42;13.23;;;8.80;;
35028;SDS011;35394;54.282;10.070;2024-01-10T01:29:13;14.45;;;9.18;;
35028;SDS011;35394;54.282;10.070;2024-01-10T01:29:44;14.30;;;8.93;;
35028;SDS011;35394;54.282;10.070;2024-01-10T01:30:15;15.23;;;9.55;;
35028;SDS011;35394;54.282;10.070;2024-01-10T01:30:45;13.43;;;8.67;;
35028;SDS011;35394;54.282;10.070;2024-01-10T01:31:16;14.70;;;9.23;;
35028;SDS011;35394;54.282;10.070;2024-01-10T01:31:47;14.18;;;9.43;;
35028;SDS011;35394;54.282;10.070;2024-01-10T01:32:18;17.60;;;10.97;;
35028;SDS011;35394;54.282;10.070;2024-01-10T01:32:48;13.32;;;8.70;;
35028;SDS011;35394;54.282;10.070;2024-01-10T01:33:19;15.60;;;9.63;;
35028;SDS011;35394;54.282;10.070;2024-01-10T01:33:50;15.68;;;9.75;;
35028;SDS011;35394;54.282;10.070;2024-01-10T01:34:20;14.13;;;9.40;;
35028;SDS011;35394;54.282;10.070;2024-01-10T01:34:51;14.03;;;9.33;;
35028;SDS011;35394;54.282;10.070;2024-01-10T01:35:21;13.65;;;9.02;;
35028;SDS011;35394;54.282;10.070;2024-01-10T01:35:52;17.60;;;10.60;;
35028;SDS011;35394;54.282;10.070;2024-01-10T01:36:24;17.40;;;10.02;;
35028;SDS011;35394;54.282;10.070;2024-01-10T01:36:54;15.37;;;9.73;;
35028;SDS011;35394;54.282;10.070;2024-01-10T01:37:25;15.50;;;10.00;;
35028;SDS011;35394;54.282;10.070;2024-01-10T01:37:55;16.40;;;10.27;;
35028;SDS011;35394;54.282;10.070;2024-01-10T01:38:26;15.65;;;10.00;;
35028;SDS011;35394;54.282;10.070;2024-01-10T01:38:57;15.63;;;9.85;;
35028;SDS011;35394;54.282;10.070;2024-01-10T01:39:27;15.80;;;10.00;;
35028;SDS011;35394;54.282;10.070;2024-01-10T01:39:58;14.18;;;9.73;;
35028;SDS011;35394;54.282;10.070;2024-01-10T01:40:28;15.10;;;9.38;;
35028;SDS011;35394;54.282;10.070;2024-01-10T01:40:59;17.03;;;9.97;;
35028;SDS011;35394;54.282;10.070;2024-01-10T01:41:29;15.63;;;9.57;;
35028;SDS011;35394;54.282;10.070;2024-01-10T01:42:00;13.40;;;8.80;;
35028;SDS011;35394;54.282;10.070;2024-01-10T01:42:31;14.60;;;9.33;;
35028;SDS011;35394;54.282;10.070;2024-01-10T01:43:02;13.55;;;9.18;;
35028;SDS011;35394;54.282;10.070;2024-01-10T01:43:50;13.90;;;9.13;;
35028;SDS011;35394;54.282;10.070;2024-01-10T01:44:21;14.63;;;9.43;;
35028;SDS011;35394;54.282;10.070;2024-01-10T01:44:52;14.55;;;9.52;;
35028;SDS011;35394;54.282;10.070;2024-01-10T01:45:22;13.93;;;8.97;;
35028;SDS011;35394;54.282;10.070;2024-01-10T01:45:54;15.20;;;9.57;;
35028;SDS011;35394;54.282;10.070;2024-01-10T01:46:25;14.63;;;9.45;;
35028;SDS011;35394;54.282;10.070;2024-01-10T01:46:55;13.98;;;9.18;;
35028;SDS011;35394;54.282;10.070;2024-01-10T01:47:26;14.87;;;9.20;;
35028;SDS011;35394;54.282;10.070;2024-01-10T01:47:57;14.38;;;9.13;;
35028;SDS011;35394;54.282;10.070;2024-01-10T01:48:27;14.43;;;9.27;;
35028;SDS011;35394;54.282;10.070;2024-01-10T01:48:59;14.40;;;9.25;;
35028;SDS011;35394;54.282;10.070;2024-01-10T01:49:29;15.80;;;9.15;;
35028;SDS011;35394;54.282;10.070;2024-01-10T01:50:01;13.93;;;9.07;;
35028;SDS011;35394;54.282;10.070;2024-01-10T01:50:32;13.65;;;9.30;;
35028;SDS011;35394;54.282;10.070;2024-01-10T01:51:06;16.50;;;10.07;;
35028;SDS011;35394;54.282;10.070;2024-01-10T01:51:37;15.85;;;10.18;;
35028;SDS011;35394;54.282;10.070;2024-01-10T01:52:09;14.15;;;9.43;;
35028;SDS011;35394;54.282;10.070;2024-01-10T01:52:40;14.40;;;9.45;;
35028;SDS011;35394;54.282;10.070;2024-01-10T01:53:12;14.00;;;9.00;;
35028;SDS011;35394;54.282;10.070;2024-01-10T01:53:44;17.25;;;10.55;;
35028;SDS011;35394;54.282;10.070;2024-01-10T01:54:14;21.00;;;11.95;;
35028;SDS011;35394;54.282;10.070;2024-01-10T01:54:45;15.83;;;10.13;;
35028;SDS011;35394;54.282;10.070;2024-01-10T01:55:16;15.55;;;9.80;;
35028;SDS011;35394;54.282;10.070;2024-01-10T01:55:47;17.08;;;10.70;;
35028;SDS011;35394;54.282;10.070;2024-01-10T01:56:18;18.55;;;11.25;;
35028;SDS011;35394;54.282;10.070;2024-01-10T01:56:49;15.27;;;10.30;;
35028;SDS011;35394;54.282;10.070;2024-01-10T01:57:20;14.52;;;9.85;;
35028;SDS011;35394;54.282;10.070;2024-01-10T01:57:51;15.55;;;9.93;;
35028;SDS011;35394;54.282;10.070;2024-01-10T01:58:22;15.30;;;9.73;;
35028;SDS011;35394;54.282;10.070;2024-01-10T01:58:53;16.38;;;9.80;;
35028;SDS011;35394;54.282;10.070;2024-01-10T01:59:24;13.13;;;9.02;;
35028;SDS011;35394;54.282;10.070;2024-01-10T01:59:54;13.70;;;9.40;;
35028;SDS011;35394;54.282;10.070;2024-01-10T02:00:25;13.93;;;9.27;;
35028;SDS011;35394;54.282;10.070;2024-01-10T02:00:56;14.40;;;9.50;;
35028;SDS011;35394;54.282;10.070;2024-01-10T02:01:26;13.80;;;9.43;;
35028;SDS011;35394;54.282;10.070;2024-01-10T02:01:57;14.03;;;9.50;;
35028;SDS011;35394;54.282;10.070;2024-01-10T02:02:30;13.82;;;9.38;;
35028;SDS011;35394;54.282;10.070;2024-01-10T02:03:02;14.45;;;9.82;;
35028;SDS011;35394;54.282;10.070;2024-01-10T02:03:33;15.05;;;9.70;;
35028;SDS011;35394;54.282;10.070;2024-01-10T02:04:04;14.30;;;9.18;;
35028;SDS011;35394;54.282;10.070;2024-01-10T02:04:35;14.65;;;9.88;;
35028;SDS011;35394;54.282;10.070;2024-01-10T02:05:06;15.27;;;9.20;;
35028;SDS011;35394;54.282;10.070;2024-01-10T02:05:37;14.52;;;9.57;;
35028;SDS011;35394;54.282;10.070;2024-01-10T02:06:08;14.65;;;9.52;;
35028;SDS011;35394;54.282;10.070;2024-01-10T02:06:38;13.95;;;9.38;;
35028;SDS011;35394;54.282;10.070;2024-01-10T02:07:09;14.43;;;9.40;;
35028;SDS011;35394;54.282;10.070;2024-01-10T02:07:39;14.98;;;9.88;;
35028;SDS011;35394;54.282;10.070;2024-01-10T02:08:10;12.37;;;8.47;;
35028;SDS011;35394;54.282;10.070;2024-01-10T02:08:41;14.40;;;9.57;;
35028;SDS011;35394;54.282;10.070;2024-01-10T02:09:12;15.30;;;9.73;;
35028;SDS011;35394;54.282;10.070;2024-01-10T02:09:43;13.18;;;8.85;;
35028;SDS011;35394;54.282;10.070;2024-01-10T02:10:14;14.03;;;9.37;;
35028;SDS011;35394;54.282;10.070;2024-01-10T02:10:44;15.88;;;10.30;;
35028;SDS011;35394;54.282;10.070;2024-01-10T02:11:15;14.70;;;9.70;;
35028;SDS011;35394;54.282;10.070;2024-01-10T02:11:45;14.50;;;9.73;;
35028;SDS011;35394;54.282;10.070;2024-01-10T02:12:16;15.75;;;9.93;;
35028;SDS011;35394;54.282;10.070;2024-01-10T02:12:47;14.93;;;9.93;;
35028;SDS011;35394;54.282;10.070;2024-01-10T02:13:18;18.17;;;11.25;;
35028;SDS011;35394;54.282;10.070;2024-01-10T02:13:48;17.97;;;11.77;;
35028;SDS011;35394;54.282;10.070;2024-01-10T02:14:19;17.67;;;11.33;;
35028;SDS011;35394;54.282;10.070;2024-01-10T02:14:50;18.20;;;11.23;;
35028;SDS011;35394;54.282;10.070;2024-01-10T02:15:20;16.23;;;10.73;;
35028;SDS011;35394;54.282;10.070;2024-01-10T02:15:51;16.80;;;10.77;;
35028;SDS011;35394;54.282;10.070;2024-01-10T02:16:22;17.08;;;11.18;;
35028;SDS011;35394;54.282;10.070;2024-01-10T02:16:53;16.48;;;10.82;;
35028;SDS011;35394;54.282;10.070;2024-01-10T02:17:24;16.10;;;10.43;;
35028;SDS011;35394;54.282;10.070;2024-01-10T02:17:55;16.80;;;10.73;;
35028;SDS011;35394;54.282;10.070;2024-01-10T02:18:26;16.53;;;10.83;;
35028;SDS011;35394;54.282;10.070;2024-01-10T02:18:56;15.73;;;10.17;;
35028;SDS011;35394;54.282;10.070;2024-01-10T02:19:27;16.80;;;10.80;;
35028;SDS011;35394;54.282;10.070;2024-01-10T02:20:09;16.15;;;10.68;;
35028;SDS011;35394;54.282;10.070;2024-01-10T02:20:43;15.85;;;10.40;;
35028;SDS011;35394;54.282;10.070;2024-01-10T02:21:14;16.50;;;10.52;;
35028;SDS011;35394;54.282;10.070;2024-01-10T02:21:45;16.48;;;10.13;;
35028;SDS011;35394;54.282;10.070;2024-01-10T02:22:16;15.10;;;9.87;;
35028;SDS011;35394;54.282;10.070;2024-01-10T02:22:46;15.00;;;10.10;;
35028;SDS011;35394;54.282;10.070;2024-01-10T02:23:17;15.10;;;9.95;;
35028;SDS011;35394;54.282;10.070;2024-01-10T02:23:48;15.33;;;10.47;;
35028;SDS011;35394;54.282;10.070;2024-01-10T02:24:18;15.00;;;10.23;;
35028;SDS011;35394;54.282;10.070;2024-01-10T02:24:52;15.88;;;10.30;;
35028;SDS011;35394;54.282;10.070;2024-01-10T02:25:24;14.75;;;9.93;;
35028;SDS011;35394;54.282;10.070;2024-01-10T02:25:54;17.20;;;10.60;;
35028;SDS011;35394;54.282;10.070;2024-01-10T02:26:25;16.50;;;10.40;;
35028;SDS011;35394;54.282;10.070;2024-01-10T02:26:57;16.20;;;10.27;;
35028;SDS011;35394;54.282;10.070;2024-01-10T02:27:27;17.33;;;11.30;;
35028;SDS011;35394;54.282;10.070;2024-01-10T02:27:58;16.63;;;10.60;;
35028;SDS011;35394;54.282;10.070;2024-01-10T02:28:28;16.52;;;10.43;;
35028;SDS011;35394;54.282;10.070;2024-01-10T02:28:59;18.30;;;11.27;;
35028;SDS011;35394;54.282;10.070;2024-01-10T02:29:30;15.35;;;10.05;;
35028;SDS011;35394;54.282;10.070;2024-01-10T02:30:01;14.77;;;9.95;;
35028;SDS011;35394;54.282;10.070;2024-01-10T02:30:33;15.15;;;10.43;;
35028;SDS011;35394;54.282;10.070;2024-01-10T02:31:03;14.75;;;10.13;;
35028;SDS011;35394;54.282;10.070;2024-01-10T02:31:34;15.80;;;9.98;;
35028;SDS011;35394;54.282;10.070;2024-01-10T02:32:05;16.03;;;10.90;;
35028;SDS011;35394;54.282;10.070;2024-01-10T02:32:35;17.27;;;11.20;;
35028;SDS011;35394;54.282;10.070;2024-01-10T02:33:07;17.50;;;10.23;;
35028;SDS011;35394;54.282;10.070;2024-01-10T02:33:38;13.70;;;9.50;;
35028;SDS011;35394;54.282;10.070;2024-01-10T02:34:08;16.10;;;10.73;;
35028;SDS011;35394;54.282;10.070;2024-01-10T02:34:39;19.70;;;12.53;;
35028;SDS011;35394;54.282;10.070;2024-01-10T02:35:10;16.55;;;10.90;;
35028;SDS011;35394;54.282;10.070;2024-01-10T02:35:40;16.33;;;11.18;;
35028;SDS011;35394;54.282;10.070;2024-01-10T02:36:11;18.03;;;12.00;;
35028;SDS011;35394;54.282;10.070;2024-01-10T02:36:41;17.77;;;11.00;;
35028;SDS011;35394;54.282;10.070;2024-01-10T02:37:12;16.67;;;11.00;;
35028;SDS011;35394;54.282;10.070;2024-01-10T02:37:42;17.53;;;11.07;;
35028;SDS011;35394;54.282;10.070;2024-01-10T02:38:13;17.60;;;10.80;;
35028;SDS011;35394;54.282;10.070;2024-01-10T02:38:44;16.15;;;10.40;;
35028;SDS011;35394;54.282;10.070;2024-01-10T02:39:14;16.33;;;10.80;;
35028;SDS011;35394;54.282;10.070;2024-01-10T02:39:45;16.60;;;10.82;;
35028;SDS011;35394;54.282;10.070;2024-01-10T02:40:16;17.77;;;10.85;;
35028;SDS011;35394;54.282;10.070;2024-01-10T02:40:46;20.73;;;11.13;;
35028;SDS011;35394;54.282;10.070;2024-01-10T02:41:17;15.63;;;10.60;;
35028;SDS011;35394;54.282;10.070;2024-01-10T02:41:48;15.63;;;10.60;;
35028;SDS011;35394;54.282;10.070;2024-01-10T02:42:18;15.98;;;10.77;;
35028;SDS011;35394;54.282;10.070;2024-01-10T02:42:49;16.90;;;10.90;;
35028;SDS011;35394;54.282;10.070;2024-01-10T02:43:21;15.25;;;10.40;;
35028;SDS011;35394;54.282;10.070;2024-01-10T02:43:51;19.23;;;11.35;;
35028;SDS011;35394;54.282;10.070;2024-01-10T02:44:22;16.43;;;11.27;;
35028;SDS011;35394;54.282;10.070;2024-01-10T02:44:53;22.17;;;12.55;;
35028;SDS011;35394;54.282;10.070;2024-01-10T02:45:23;15.23;;;10.50;;
35028;SDS011;35394;54.282;10.070;2024-01-10T02:45:54;16.08;;;11.18;;
35028;SDS011;35394;54.282;10.070;2024-01-10T02:46:25;21.05;;;13.50;;
35028;SDS011;35394;54.282;10.070;2024-01-10T02:46:57;20.27;;;13.32;;
35028;SDS011;35394;54.282;10.070;2024-01-10T02:47:28;19.30;;;12.60;;
35028;SDS011;35394;54.282;10.070;2024-01-10T02:47:59;21.08;;;13.20;;
35028;SDS011;35394;54.282;10.070;2024-01-10T02:48:29;19.98;;;12.70;;
35028;SDS011;35394;54.282;10.070;2024-01-10T02:49:00;19.43;;;12.20;;
35028;SDS011;35394;54.282;10.070;2024-01-10T02:49:31;19.98;;;12.57;;
35028;SDS011;35394;54.282;10.070;2024-01-10T02:50:01;19.38;;;12.52;;
35028;SDS011;35394;54.282;10.070;2024-01-10T02:50:32;21.60;;;14.13;;
35028;SDS011;35394;54.282;10.070;2024-01-10T02:51:02;22.93;;;14.30;;
35028;SDS011;35394;54.282;10.070;2024-01-10T02:51:34;21.70;;;13.82;;
35028;SDS011;35394;54.282;10.070;2024-01-10T02:52:04;20.77;;;13.63;;
35028;SDS011;35394;54.282;10.070;2024-01-10T02:52:35;21.00;;;12.88;;
35028;SDS011;35394;54.282;10.070;2024-01-10T02:53:06;21.30;;;13.38;;
35028;SDS011;35394;54.282;10.070;2024-01-10T02:53:36;21.93;;;14.10;;
35028;SDS011;35394;54.282;10.070;2024-01-10T02:54:07;22.27;;;13.98;;
35028;SDS011;35394;54.282;10.070;2024-01-10T02:54:37;19.08;;;12.18;;
35028;SDS011;35394;54.282;10.070;2024-01-10T02:55:08;20.73;;;12.77;;
35028;SDS011;35394;54.282;10.070;2024-01-10T02:55:38;19.95;;;12.77;;
35028;SDS011;35394;54.282;10.070;2024-01-10T02:56:10;18.98;;;12.40;;
35028;SDS011;35394;54.282;10.070;2024-01-10T02:56:40;18.52;;;12.10;;
35028;SDS011;35394;54.282;10.070;2024-01-10T02:57:11;20.80;;;12.90;;
35028;SDS011;35394;54.282;10.070;2024-01-10T02:57:41;17.30;;;11.63;;
35028;SDS011;35394;54.282;10.070;2024-01-10T02:58:12;20.50;;;12.50;;
35028;SDS011;35394;54.282;10.070;2024-01-10T02:58:42;17.67;;;12.03;;